createdAt,value
2022-11-06T00:02:31.749Z,21.23
2022-11-06T00:07:25.302Z,21.98
2022-11-06T00:12:18.456Z,22.80
2022-11-06T00:17:12.949Z,24.25
2022-11-06T00:22:06.871Z,24.88
2022-11-06T00:27:00.028Z,24.05
2022-11-06T00:31:53.303Z,23.80
2022-11-06T00:36:47.897Z,24.05
2022-11-06T00:41:41.378Z,25.67
2022-11-06T00:46:34.554Z,26.58
2022-11-06T00:51:30.380Z,26.88
2022-11-06T00:56:25.172Z,26.77
2022-11-06T01:01:21.865Z,26.90
2022-11-06T01:06:17.459Z,26.08
2022-11-06T01:11:16.090Z,24.95
2022-11-06T01:16:13.161Z,25.83
2022-11-06T01:21:07.535Z,28.25
2022-11-06T01:26:03.063Z,26.58
2022-11-06T01:30:56.839Z,26.00
2022-11-06T01:35:53.072Z,26.88
2022-11-06T01:40:48.610Z,27.55
2022-11-06T01:45:42.665Z,26.40
2022-11-06T01:50:36.178Z,28.27
2022-11-06T01:55:33.970Z,27.25
2022-11-06T02:00:27.877Z,27.90
2022-11-06T02:05:21.317Z,28.95
2022-11-06T02:10:14.518Z,29.48
2022-11-06T02:15:14.149Z,30.45
2022-11-06T02:20:14.424Z,30.13
2022-11-06T02:25:16.761Z,31.75
2022-11-06T02:30:13.305Z,31.13
2022-11-06T02:35:17.916Z,32.17
2022-11-06T02:40:14.263Z,31.27
2022-11-06T02:45:12.306Z,29.85
2022-11-06T02:50:11.360Z,31.83
2022-11-06T02:55:10.158Z,29.65
2022-11-06T03:00:07.921Z,31.92
2022-11-06T03:05:08.283Z,31.38
2022-11-06T03:15:00.408Z,31.10
2022-11-06T03:19:57.359Z,30.38
2022-11-06T03:25:00.476Z,30.30
2022-11-06T03:29:59.396Z,31.45
2022-11-06T03:34:56.614Z,31.00
2022-11-06T03:39:54.586Z,33.00
2022-11-06T03:44:52.422Z,31.73
2022-11-06T03:49:50.785Z,32.47
2022-11-06T03:54:50.132Z,32.38
2022-11-06T03:59:49.590Z,33.30
2022-11-06T04:04:47.959Z,32.83
2022-11-06T04:10:02.599Z,33.63
2022-11-06T04:15:00.545Z,34.08
2022-11-06T04:19:56.736Z,33.45
2022-11-06T04:25:18.550Z,33.35
2022-11-06T04:30:16.156Z,32.33
2022-11-06T04:35:18.667Z,31.52
2022-11-06T04:40:18.683Z,32.88
2022-11-06T04:45:18.720Z,33.42
2022-11-06T04:50:16.522Z,32.20
2022-11-06T04:55:10.102Z,31.67
2022-11-06T05:00:03.506Z,33.05
2022-11-06T05:04:58.114Z,32.28
2022-11-06T05:09:51.765Z,32.03
2022-11-06T05:14:45.066Z,30.95
2022-11-06T05:19:38.239Z,32.50
2022-11-06T05:24:32.820Z,33.58
2022-11-06T05:29:26.029Z,32.65
2022-11-06T05:34:19.187Z,31.25
2022-11-06T05:39:12.534Z,29.42
2022-11-06T05:44:07.281Z,31.13
2022-11-06T05:49:00.567Z,31.27
2022-11-06T05:53:53.975Z,38.53
2022-11-06T05:58:47.224Z,35.55
2022-11-06T06:03:41.955Z,28.35
2022-11-06T06:08:35.055Z,27.83
2022-11-06T06:13:28.278Z,34.65
2022-11-06T06:18:21.787Z,28.98
2022-11-06T06:23:16.545Z,28.15
2022-11-06T06:28:09.982Z,28.88
2022-11-06T06:33:07.006Z,27.38
2022-11-06T06:38:00.590Z,27.90
2022-11-06T06:42:57.116Z,26.52
2022-11-06T06:47:53.628Z,26.80
2022-11-06T06:52:47.491Z,27.48
2022-11-06T06:57:40.591Z,26.15
2022-11-06T07:02:35.103Z,25.77
2022-11-06T07:07:28.424Z,26.92
2022-11-06T07:12:21.575Z,23.92
2022-11-06T07:17:14.704Z,24.02
2022-11-06T07:22:09.199Z,25.23
2022-11-06T07:27:02.307Z,25.42
2022-11-06T07:31:55.462Z,25.95
2022-11-06T07:36:48.584Z,24.42
2022-11-06T07:41:43.128Z,24.10
2022-11-06T07:46:36.317Z,24.45
2022-11-06T07:51:29.550Z,24.80
2022-11-06T07:56:22.792Z,22.98
2022-11-06T08:01:19.167Z,23.35
2022-11-06T08:06:13.150Z,19.30
2022-11-06T08:11:07.271Z,19.80
2022-11-06T08:16:00.437Z,19.30
2022-11-06T08:20:55.235Z,19.52
2022-11-06T08:25:48.841Z,18.38
2022-11-06T08:30:41.941Z,19.27
2022-11-06T08:35:36.209Z,17.92
2022-11-06T08:40:31.562Z,16.92
2022-11-06T08:45:24.773Z,17.40
2022-11-06T08:50:17.981Z,17.88
2022-11-06T08:55:11.158Z,17.85
2022-11-06T09:00:06.729Z,15.60
2022-11-06T09:04:59.873Z,17.55
2022-11-06T09:09:53.061Z,15.48
2022-11-06T09:14:47.342Z,14.15
2022-11-06T09:19:41.912Z,15.00
2022-11-06T09:25:01.433Z,13.95
2022-11-06T09:29:49.269Z,14.45
2022-11-06T09:34:46.177Z,14.40
2022-11-06T09:39:39.560Z,13.82
2022-11-06T09:44:49.883Z,15.15
2022-11-06T09:49:53.041Z,14.27
2022-11-06T09:54:55.983Z,12.93
2022-11-06T09:59:52.815Z,13.98
2022-11-06T10:04:50.946Z,13.68
2022-11-06T10:09:44.037Z,13.07
2022-11-06T10:14:51.367Z,12.57
2022-11-06T10:19:56.369Z,13.70
2022-11-06T10:24:58.871Z,13.25
2022-11-06T10:30:04.368Z,12.18
2022-11-06T10:35:04.512Z,11.65
2022-11-06T10:39:59.647Z,10.65
2022-11-06T10:44:58.141Z,11.27
2022-11-06T10:49:53.959Z,10.98
2022-11-06T10:55:04.296Z,10.23
2022-11-06T10:59:57.595Z,11.05
2022-11-06T11:04:55.331Z,9.55
2022-11-06T11:09:52.155Z,10.35
2022-11-06T11:14:45.430Z,10.05
2022-11-06T11:19:41.540Z,9.98
2022-11-06T11:24:35.202Z,10.35
2022-11-06T11:29:32.736Z,11.48
2022-11-06T11:34:28.360Z,10.63
2022-11-06T11:39:25.793Z,11.38
2022-11-06T11:44:20.560Z,10.18
2022-11-06T11:49:27.798Z,10.18
2022-11-06T11:54:25.750Z,11.52
2022-11-06T11:59:22.090Z,9.40
2022-11-06T12:04:23.092Z,9.95
2022-11-06T12:09:16.319Z,10.15
2022-11-06T12:14:20.490Z,9.20
2022-11-06T12:19:15.086Z,9.73
2022-11-06T12:24:17.874Z,10.43
2022-11-06T12:29:17.161Z,10.07
2022-11-06T12:34:17.842Z,9.60
2022-11-06T12:39:16.594Z,9.75
2022-11-06T12:44:12.717Z,9.70
2022-11-06T12:49:30.576Z,10.02
2022-11-06T12:54:41.234Z,10.05
2022-11-06T12:59:46.106Z,10.75
2022-11-06T13:04:52.641Z,10.15
2022-11-06T13:09:56.508Z,10.35
2022-11-06T13:15:04.452Z,11.07
2022-11-06T13:20:03.553Z,10.63
2022-11-06T13:25:05.563Z,10.93
2022-11-06T13:30:08.621Z,12.13
2022-11-06T13:35:03.660Z,11.38
2022-11-06T13:40:06.807Z,11.38
2022-11-06T13:45:02.374Z,11.15
2022-11-06T13:50:04.600Z,10.30
2022-11-06T13:55:12.061Z,10.25
2022-11-06T14:00:20.094Z,9.75
2022-11-06T14:05:53.561Z,10.60
2022-11-06T14:10:56.055Z,10.30
2022-11-06T14:15:49.264Z,9.98
2022-11-06T14:20:44.502Z,10.02
2022-11-06T14:25:58.824Z,9.93
2022-11-06T14:36:15.179Z,11.05
2022-11-06T14:41:44.879Z,10.18
2022-11-06T14:46:39.413Z,10.65
2022-11-06T14:51:33.114Z,10.98
2022-11-06T14:56:28.462Z,10.85
2022-11-06T15:01:29.835Z,11.70
2022-11-06T15:06:46.115Z,12.00
2022-11-06T15:11:57.705Z,11.05
2022-11-06T15:16:53.243Z,10.77
2022-11-06T15:21:51.674Z,11.57
2022-11-06T15:26:50.157Z,11.30
2022-11-06T15:31:46.308Z,11.57
2022-11-06T15:36:47.760Z,11.80
2022-11-06T15:41:43.521Z,10.07
2022-11-06T15:46:36.829Z,11.30
2022-11-06T15:51:30.993Z,11.88
2022-11-06T15:56:30.480Z,11.88
2022-11-06T16:01:34.079Z,11.65
2022-11-06T16:06:27.971Z,13.43
2022-11-06T16:11:22.095Z,13.18
2022-11-06T16:21:35.490Z,14.25
2022-11-06T16:26:37.688Z,14.57
2022-11-06T16:31:32.473Z,13.25
2022-11-06T16:36:27.319Z,13.75
2022-11-06T16:41:40.919Z,13.20
2022-11-06T16:47:17.085Z,12.40
2022-11-06T16:52:20.593Z,18.13
2022-11-06T16:57:20.157Z,14.43
2022-11-06T17:02:25.638Z,12.50
2022-11-06T17:07:23.674Z,11.20
2022-11-06T17:12:18.497Z,11.38
2022-11-06T17:17:26.055Z,10.63
2022-11-06T17:22:19.319Z,10.73
2022-11-06T17:27:12.519Z,12.05
2022-11-06T17:32:08.399Z,11.25
2022-11-06T17:37:01.678Z,11.02
2022-11-06T17:41:54.797Z,10.43
2022-11-06T17:46:48.607Z,10.00
2022-11-06T17:51:53.604Z,10.77
2022-11-06T17:56:47.308Z,11.10
2022-11-06T18:01:42.852Z,11.18
2022-11-06T18:06:36.829Z,10.32
2022-11-06T18:11:34.566Z,10.98
2022-11-06T18:16:30.252Z,10.38
2022-11-06T18:21:24.169Z,11.32
2022-11-06T18:26:18.078Z,10.18
2022-11-06T18:31:12.834Z,10.63
2022-11-06T18:36:08.973Z,11.73
2022-11-06T18:41:09.059Z,11.02
2022-11-06T18:50:59.166Z,10.60
2022-11-06T18:55:55.685Z,9.07
2022-11-06T19:00:49.037Z,10.50
2022-11-06T19:05:53.781Z,10.65
2022-11-06T19:10:48.463Z,10.38
2022-11-06T19:15:46.247Z,9.45
2022-11-06T19:20:41.201Z,9.02
2022-11-06T19:25:34.521Z,9.30
2022-11-06T19:30:29.081Z,8.68
2022-11-06T19:35:22.467Z,8.23
2022-11-06T19:40:15.700Z,8.32
2022-11-06T19:45:09.728Z,8.48
2022-11-06T19:50:08.437Z,7.75
2022-11-06T19:55:25.836Z,7.72
2022-11-06T20:00:17.061Z,7.85
2022-11-06T20:05:13.740Z,7.70
2022-11-06T20:10:07.491Z,7.63
2022-11-06T20:15:00.823Z,7.32
2022-11-06T20:19:54.021Z,7.20
2022-11-06T20:24:50.481Z,6.90
2022-11-06T20:29:48.593Z,6.72
2022-11-06T20:34:45.178Z,6.28
2022-11-06T20:39:38.349Z,7.15
2022-11-06T20:44:35.037Z,7.57
2022-11-06T20:49:28.601Z,6.75
2022-11-06T20:54:22.104Z,6.75
2022-11-06T20:59:16.295Z,7.28
2022-11-06T21:04:12.629Z,6.55
2022-11-06T21:09:06.267Z,6.47
2022-11-06T21:14:00.393Z,6.32
2022-11-06T21:18:54.538Z,6.80
2022-11-06T21:23:49.597Z,6.72
2022-11-06T21:28:46.366Z,6.82
2022-11-06T21:33:41.744Z,5.70
2022-11-06T21:38:35.135Z,5.85
2022-11-06T21:43:33.259Z,6.40
2022-11-06T21:48:45.329Z,6.20
2022-11-06T21:53:58.303Z,6.15
2022-11-06T21:58:54.191Z,6.28
2022-11-06T22:03:47.668Z,6.30
2022-11-06T22:08:42.854Z,6.40
2022-11-06T22:13:36.277Z,6.35
2022-11-06T22:18:31.121Z,6.65
2022-11-06T22:23:24.454Z,6.63
2022-11-06T22:28:17.640Z,5.80
2022-11-06T22:33:11.107Z,6.22
2022-11-06T22:38:08.481Z,6.47
2022-11-06T22:43:01.656Z,5.43
2022-11-06T22:47:57.342Z,5.80
2022-11-06T22:52:51.741Z,5.93
2022-11-06T22:57:46.320Z,6.10
2022-11-06T23:02:39.561Z,5.32
2022-11-06T23:07:35.796Z,5.50
2022-11-06T23:12:33.058Z,5.25
2022-11-06T23:17:28.095Z,4.78
2022-11-06T23:22:39.621Z,4.80
2022-11-06T23:27:33.183Z,4.53
2022-11-06T23:32:28.061Z,4.25
2022-11-06T23:37:22.210Z,4.40
2022-11-06T23:42:15.793Z,4.85
2022-11-06T23:47:08.995Z,4.68
2022-11-06T23:52:03.616Z,4.50
2022-11-06T23:56:56.934Z,4.30
